OIZI 
Iran Shahr Airport
Iran 
ICAOStatus
OIZIOperational
LatitudeLongitude
27° 14' 9" N60° 43' 12" E
27.23609960.720001
Local Time (DST+5)UTC (GMT+4)
04-23-2014 08:07 pm04-23-2014 15:37
Sunrise-SunsetLocalUTC
Begin Civil Twilight05:29 am00:59
Sunrise05:53 am01:23
Sunset06:57 pm14:27
End Civil Twilight07:21 pm14:51

Current Weather

METARObservedFlight Conditions

OIZI 231500Z 27010KT 9999 SCT040TCU FEW200 33/10 Q1011

Wed, Apr 23, 2014 @ 15:00 UTC(Z)

(37 Minutes ago)

VFR

(Visual Flight Rules)

WindVisibilityCloudsConditions
270° at 10 knots (19 kph)
10 km or more
  • Scattered at 4,000' AGL
  • Few at 20,000' AGL
  • No significant weather
TemperaturesReadingsPrecipitation
Current Temp33°C (91°F)
Dewpoint10°C (50°F)
Humidity24%
Altimeter29.85"Hg
Sea Level Pressure1011mb
Field Elevation1938.98'
None Recorded

Previous 24 hour Weather Graphs

  Loading...

CheckWX.com is intended as a tool to help pilots better visualize weather data.   It is not intended as a substitute for an official weather briefing obtained from a Flight Service Station.
CheckWX.com does not meet the FAA requirements for an official pre-flight weather briefing.   Therefore, it's important that pilots still call and obtain an official FSS pre-flight weather briefing.